sensor_id;sensor_type;location;lat;lon;timestamp;P1;durP1;ratioP1;P2;durP2;ratioP2
42134;SDS011;28312;43.460;11.810;2023-01-25T00:03:42;2.20;;;1.50;;
42134;SDS011;28312;43.460;11.810;2023-01-25T00:07:46;4.13;;;1.65;;
42134;SDS011;28312;43.460;11.810;2023-01-25T00:11:49;3.58;;;2.92;;
42134;SDS011;28312;43.460;11.810;2023-01-25T00:16:04;5.35;;;4.05;;
42134;SDS011;28312;43.460;11.810;2023-01-25T00:20:08;5.85;;;4.93;;
42134;SDS011;28312;43.460;11.810;2023-01-25T00:24:12;3.55;;;2.33;;
42134;SDS011;28312;43.460;11.810;2023-01-25T00:28:16;3.83;;;3.10;;
42134;SDS011;28312;43.460;11.810;2023-01-25T00:40:28;3.37;;;2.33;;
42134;SDS011;28312;43.460;11.810;2023-01-25T00:44:34;3.80;;;2.58;;
42134;SDS011;28312;43.460;11.810;2023-01-25T00:48:37;3.78;;;2.95;;
42134;SDS011;28312;43.460;11.810;2023-01-25T00:52:40;4.30;;;3.20;;
42134;SDS011;28312;43.460;11.810;2023-01-25T00:56:44;4.32;;;2.97;;
42134;SDS011;28312;43.460;11.810;2023-01-25T01:00:47;2.70;;;2.25;;
42134;SDS011;28312;43.460;11.810;2023-01-25T01:04:52;2.95;;;1.85;;
42134;SDS011;28312;43.460;11.810;2023-01-25T01:08:58;3.65;;;2.38;;
42134;SDS011;28312;43.460;11.810;2023-01-25T01:13:01;1.20;;;0.85;;
42134;SDS011;28312;43.460;11.810;2023-01-25T01:17:08;3.40;;;1.73;;
42134;SDS011;28312;43.460;11.810;2023-01-25T01:21:11;1.83;;;1.10;;
42134;SDS011;28312;43.460;11.810;2023-01-25T01:25:17;2.28;;;1.40;;
42134;SDS011;28312;43.460;11.810;2023-01-25T01:29:21;1.77;;;1.40;;
42134;SDS011;28312;43.460;11.810;2023-01-25T01:33:25;2.60;;;1.52;;
42134;SDS011;28312;43.460;11.810;2023-01-25T01:37:29;2.08;;;1.40;;
42134;SDS011;28312;43.460;11.810;2023-01-25T01:41:32;1.88;;;1.23;;
42134;SDS011;28312;43.460;11.810;2023-01-25T01:50:00;2.22;;;1.45;;
42134;SDS011;28312;43.460;11.810;2023-01-25T01:54:22;2.05;;;1.10;;
42134;SDS011;28312;43.460;11.810;2023-01-25T01:58:47;1.85;;;1.20;;
42134;SDS011;28312;43.460;11.810;2023-01-25T02:02:53;1.50;;;1.00;;
42134;SDS011;28312;43.460;11.810;2023-01-25T02:07:02;3.85;;;0.90;;
42134;SDS011;28312;43.460;11.810;2023-01-25T02:11:08;1.75;;;0.80;;
42134;SDS011;28312;43.460;11.810;2023-01-25T02:15:14;2.30;;;0.98;;
42134;SDS011;28312;43.460;11.810;2023-01-25T02:23:44;1.17;;;0.90;;
42134;SDS011;28312;43.460;11.810;2023-01-25T02:28:11;1.63;;;0.95;;
42134;SDS011;28312;43.460;11.810;2023-01-25T02:32:20;1.58;;;0.90;;
42134;SDS011;28312;43.460;11.810;2023-01-25T02:36:25;1.80;;;1.10;;
42134;SDS011;28312;43.460;11.810;2023-01-25T02:40:31;1.40;;;0.95;;
42134;SDS011;28312;43.460;11.810;2023-01-25T02:44:44;2.00;;;1.10;;
42134;SDS011;28312;43.460;11.810;2023-01-25T02:48:50;1.20;;;0.90;;
42134;SDS011;28312;43.460;11.810;2023-01-25T02:52:54;0.93;;;0.70;;
42134;SDS011;28312;43.460;11.810;2023-01-25T02:56:57;0.43;;;0.43;;
42134;SDS011;28312;43.460;11.810;2023-01-25T03:01:06;1.42;;;0.75;;
42134;SDS011;28312;43.460;11.810;2023-01-25T03:05:09;0.90;;;0.60;;
42134;SDS011;28312;43.460;11.810;2023-01-25T03:09:13;0.88;;;0.60;;
42134;SDS011;28312;43.460;11.810;2023-01-25T03:13:21;0.60;;;0.50;;
42134;SDS011;28312;43.460;11.810;2023-01-25T03:17:24;0.93;;;0.68;;
42134;SDS011;28312;43.460;11.810;2023-01-25T03:21:28;0.50;;;0.50;;
42134;SDS011;28312;43.460;11.810;2023-01-25T03:25:32;0.90;;;0.70;;
42134;SDS011;28312;43.460;11.810;2023-01-25T03:29:44;1.05;;;0.70;;
42134;SDS011;28312;43.460;11.810;2023-01-25T03:33:53;0.50;;;0.50;;
42134;SDS011;28312;43.460;11.810;2023-01-25T03:38:00;0.45;;;0.43;;
42134;SDS011;28312;43.460;11.810;2023-01-25T03:42:04;0.60;;;0.50;;
42134;SDS011;28312;43.460;11.810;2023-01-25T03:46:08;0.90;;;0.70;;
42134;SDS011;28312;43.460;11.810;2023-01-25T03:50:13;0.73;;;0.60;;
42134;SDS011;28312;43.460;11.810;2023-01-25T03:54:19;0.50;;;0.50;;
42134;SDS011;28312;43.460;11.810;2023-01-25T03:58:23;0.63;;;0.60;;
42134;SDS011;28312;43.460;11.810;2023-01-25T04:02:26;1.15;;;0.70;;
42134;SDS011;28312;43.460;11.810;2023-01-25T04:06:30;1.10;;;0.70;;
42134;SDS011;28312;43.460;11.810;2023-01-25T04:10:33;0.75;;;0.55;;
42134;SDS011;28312;43.460;11.810;2023-01-25T04:14:38;1.25;;;0.80;;
42134;SDS011;28312;43.460;11.810;2023-01-25T04:18:53;1.40;;;0.82;;
42134;SDS011;28312;43.460;11.810;2023-01-25T04:22:57;0.82;;;0.70;;
42134;SDS011;28312;43.460;11.810;2023-01-25T04:27:08;2.10;;;1.10;;
42134;SDS011;28312;43.460;11.810;2023-01-25T04:31:19;1.33;;;0.77;;
42134;SDS011;28312;43.460;11.810;2023-01-25T04:35:24;1.27;;;0.80;;
42134;SDS011;28312;43.460;11.810;2023-01-25T04:39:28;0.60;;;0.60;;
42134;SDS011;28312;43.460;11.810;2023-01-25T04:43:31;1.05;;;0.70;;
42134;SDS011;28312;43.460;11.810;2023-01-25T04:47:42;0.70;;;0.60;;
42134;SDS011;28312;43.460;11.810;2023-01-25T04:51:46;1.42;;;0.70;;
42134;SDS011;28312;43.460;11.810;2023-01-25T04:55:49;1.45;;;1.00;;
42134;SDS011;28312;43.460;11.810;2023-01-25T04:59:52;1.27;;;0.90;;
42134;SDS011;28312;43.460;11.810;2023-01-25T05:03:58;1.23;;;0.80;;
42134;SDS011;28312;43.460;11.810;2023-01-25T05:08:09;1.00;;;0.68;;
42134;SDS011;28312;43.460;11.810;2023-01-25T05:12:12;2.00;;;1.10;;
42134;SDS011;28312;43.460;11.810;2023-01-25T05:16:37;1.50;;;0.90;;
42134;SDS011;28312;43.460;11.810;2023-01-25T05:20:42;1.88;;;0.90;;
42134;SDS011;28312;43.460;11.810;2023-01-25T05:24:46;0.45;;;0.45;;
42134;SDS011;28312;43.460;11.810;2023-01-25T05:28:51;0.40;;;0.40;;
42134;SDS011;28312;43.460;11.810;2023-01-25T05:33:06;0.63;;;0.43;;
42134;SDS011;28312;43.460;11.810;2023-01-25T05:37:11;0.68;;;0.57;;
42134;SDS011;28312;43.460;11.810;2023-01-25T05:41:19;1.40;;;0.82;;
42134;SDS011;28312;43.460;11.810;2023-01-25T05:45:22;1.08;;;0.70;;
42134;SDS011;28312;43.460;11.810;2023-01-25T05:49:26;0.50;;;0.40;;
42134;SDS011;28312;43.460;11.810;2023-01-25T05:53:29;0.75;;;0.60;;
42134;SDS011;28312;43.460;11.810;2023-01-25T05:57:33;0.40;;;0.40;;
42134;SDS011;28312;43.460;11.810;2023-01-25T06:01:37;0.70;;;0.57;;
42134;SDS011;28312;43.460;11.810;2023-01-25T06:05:42;0.70;;;0.50;;
42134;SDS011;28312;43.460;11.810;2023-01-25T06:09:45;0.40;;;0.40;;
42134;SDS011;28312;43.460;11.810;2023-01-25T06:13:49;0.93;;;0.60;;
42134;SDS011;28312;43.460;11.810;2023-01-25T06:17:53;1.25;;;0.90;;
42134;SDS011;28312;43.460;11.810;2023-01-25T06:22:13;1.90;;;0.88;;
42134;SDS011;28312;43.460;11.810;2023-01-25T06:26:17;1.17;;;0.80;;
42134;SDS011;28312;43.460;11.810;2023-01-25T06:30:20;0.55;;;0.52;;
42134;SDS011;28312;43.460;11.810;2023-01-25T06:34:25;1.30;;;0.73;;
42134;SDS011;28312;43.460;11.810;2023-01-25T06:38:28;1.00;;;0.65;;
42134;SDS011;28312;43.460;11.810;2023-01-25T06:42:33;1.63;;;1.00;;
42134;SDS011;28312;43.460;11.810;2023-01-25T06:46:36;1.23;;;0.88;;
42134;SDS011;28312;43.460;11.810;2023-01-25T06:50:40;1.05;;;0.63;;
42134;SDS011;28312;43.460;11.810;2023-01-25T06:54:43;0.90;;;0.52;;
42134;SDS011;28312;43.460;11.810;2023-01-25T06:58:48;0.90;;;0.60;;
42134;SDS011;28312;43.460;11.810;2023-01-25T07:02:52;1.00;;;0.68;;
42134;SDS011;28312;43.460;11.810;2023-01-25T07:06:55;6.22;;;0.88;;
42134;SDS011;28312;43.460;11.810;2023-01-25T07:11:00;2.03;;;0.70;;
42134;SDS011;28312;43.460;11.810;2023-01-25T07:19:10;0.80;;;0.60;;
42134;SDS011;28312;43.460;11.810;2023-01-25T07:23:17;0.93;;;0.65;;
42134;SDS011;28312;43.460;11.810;2023-01-25T07:27:22;0.63;;;0.52;;
42134;SDS011;28312;43.460;11.810;2023-01-25T07:31:25;1.27;;;0.75;;
42134;SDS011;28312;43.460;11.810;2023-01-25T07:35:29;0.93;;;0.70;;
42134;SDS011;28312;43.460;11.810;2023-01-25T07:39:34;0.38;;;0.38;;
42134;SDS011;28312;43.460;11.810;2023-01-25T07:43:38;0.60;;;0.47;;
42134;SDS011;28312;43.460;11.810;2023-01-25T07:47:44;1.27;;;0.75;;
42134;SDS011;28312;43.460;11.810;2023-01-25T07:51:49;0.40;;;0.40;;
42134;SDS011;28312;43.460;11.810;2023-01-25T07:55:53;0.60;;;0.50;;
42134;SDS011;28312;43.460;11.810;2023-01-25T08:00:00;0.75;;;0.57;;
42134;SDS011;28312;43.460;11.810;2023-01-25T08:04:13;0.82;;;0.55;;
42134;SDS011;28312;43.460;11.810;2023-01-25T08:08:19;1.50;;;0.70;;
42134;SDS011;28312;43.460;11.810;2023-01-25T08:12:23;1.20;;;0.60;;
42134;SDS011;28312;43.460;11.810;2023-01-25T08:20:33;1.73;;;1.10;;
42134;SDS011;28312;43.460;11.810;2023-01-25T08:24:37;1.05;;;0.70;;
42134;SDS011;28312;43.460;11.810;2023-01-25T08:28:41;1.00;;;0.68;;
42134;SDS011;28312;43.460;11.810;2023-01-25T08:32:45;1.38;;;0.75;;
42134;SDS011;28312;43.460;11.810;2023-01-25T08:36:49;5.47;;;2.45;;
42134;SDS011;28312;43.460;11.810;2023-01-25T08:41:11;1.90;;;0.93;;
42134;SDS011;28312;43.460;11.810;2023-01-25T08:45:20;1.15;;;0.65;;
42134;SDS011;28312;43.460;11.810;2023-01-25T08:49:24;0.63;;;0.60;;
42134;SDS011;28312;43.460;11.810;2023-01-25T08:53:29;0.90;;;0.60;;
42134;SDS011;28312;43.460;11.810;2023-01-25T08:57:35;1.63;;;0.82;;
42134;SDS011;28312;43.460;11.810;2023-01-25T09:01:38;0.93;;;0.43;;
42134;SDS011;28312;43.460;11.810;2023-01-25T09:05:42;1.13;;;0.60;;
42134;SDS011;28312;43.460;11.810;2023-01-25T09:09:46;2.03;;;1.25;;
42134;SDS011;28312;43.460;11.810;2023-01-25T09:13:50;1.75;;;0.98;;
42134;SDS011;28312;43.460;11.810;2023-01-25T09:17:54;1.08;;;0.70;;
42134;SDS011;28312;43.460;11.810;2023-01-25T09:21:58;0.98;;;0.60;;
42134;SDS011;28312;43.460;11.810;2023-01-25T09:26:02;1.20;;;0.70;;
42134;SDS011;28312;43.460;11.810;2023-01-25T09:30:08;1.13;;;0.70;;
42134;SDS011;28312;43.460;11.810;2023-01-25T09:34:24;1.17;;;0.68;;
42134;SDS011;28312;43.460;11.810;2023-01-25T09:38:28;0.82;;;0.65;;
42134;SDS011;28312;43.460;11.810;2023-01-25T09:42:35;0.95;;;0.68;;
42134;SDS011;28312;43.460;11.810;2023-01-25T09:47:00;1.80;;;0.90;;
42134;SDS011;28312;43.460;11.810;2023-01-25T09:51:17;1.17;;;0.73;;
42134;SDS011;28312;43.460;11.810;2023-01-25T09:55:39;0.88;;;0.73;;
42134;SDS011;28312;43.460;11.810;2023-01-25T09:59:44;1.20;;;0.85;;
42134;SDS011;28312;43.460;11.810;2023-01-25T10:03:56;1.10;;;0.82;;
42134;SDS011;28312;43.460;11.810;2023-01-25T10:12:20;1.38;;;0.70;;
42134;SDS011;28312;43.460;11.810;2023-01-25T10:20:50;1.38;;;0.77;;
42134;SDS011;28312;43.460;11.810;2023-01-25T10:29:19;1.00;;;0.70;;
42134;SDS011;28312;43.460;11.810;2023-01-25T10:33:27;1.48;;;0.93;;
42134;SDS011;28312;43.460;11.810;2023-01-25T10:37:32;4.55;;;2.05;;
42134;SDS011;28312;43.460;11.810;2023-01-25T10:41:40;1.90;;;1.27;;
42134;SDS011;28312;43.460;11.810;2023-01-25T10:45:49;1.85;;;1.17;;
42134;SDS011;28312;43.460;11.810;2023-01-25T10:49:54;2.35;;;1.63;;
42134;SDS011;28312;43.460;11.810;2023-01-25T10:54:01;2.45;;;1.30;;
42134;SDS011;28312;43.460;11.810;2023-01-25T10:58:07;2.47;;;1.10;;
42134;SDS011;28312;43.460;11.810;2023-01-25T11:06:47;4.07;;;2.15;;
42134;SDS011;28312;43.460;11.810;2023-01-25T11:10:53;3.23;;;1.33;;
42134;SDS011;28312;43.460;11.810;2023-01-25T11:14:56;2.83;;;1.38;;
42134;SDS011;28312;43.460;11.810;2023-01-25T11:19:30;2.10;;;1.20;;
42134;SDS011;28312;43.460;11.810;2023-01-25T11:23:39;2.10;;;1.30;;
42134;SDS011;28312;43.460;11.810;2023-01-25T11:27:43;2.13;;;1.02;;
42134;SDS011;28312;43.460;11.810;2023-01-25T11:31:51;1.75;;;1.08;;
42134;SDS011;28312;43.460;11.810;2023-01-25T11:40:12;3.05;;;1.20;;
42134;SDS011;28312;43.460;11.810;2023-01-25T11:44:45;1.95;;;1.00;;
42134;SDS011;28312;43.460;11.810;2023-01-25T11:49:11;2.15;;;0.98;;
42134;SDS011;28312;43.460;11.810;2023-01-25T11:53:37;2.20;;;1.20;;
42134;SDS011;28312;43.460;11.810;2023-01-25T12:06:21;3.03;;;1.30;;
42134;SDS011;28312;43.460;11.810;2023-01-25T12:10:39;2.35;;;1.20;;
42134;SDS011;28312;43.460;11.810;2023-01-25T12:19:34;1.35;;;1.02;;
42134;SDS011;28312;43.460;11.810;2023-01-25T12:36:34;1.85;;;1.42;;
42134;SDS011;28312;43.460;11.810;2023-01-25T12:45:14;2.10;;;1.05;;
42134;SDS011;28312;43.460;11.810;2023-01-25T12:53:46;3.53;;;1.73;;
42134;SDS011;28312;43.460;11.810;2023-01-25T13:11:21;2.10;;;1.30;;
42134;SDS011;28312;43.460;11.810;2023-01-25T13:15:35;1.80;;;1.20;;
42134;SDS011;28312;43.460;11.810;2023-01-25T13:19:41;2.70;;;1.40;;
42134;SDS011;28312;43.460;11.810;2023-01-25T13:23:44;3.05;;;1.42;;
42134;SDS011;28312;43.460;11.810;2023-01-25T13:27:55;2.17;;;1.30;;
42134;SDS011;28312;43.460;11.810;2023-01-25T13:40:44;1.65;;;0.90;;
42134;SDS011;28312;43.460;11.810;2023-01-25T13:45:17;1.30;;;0.90;;
42134;SDS011;28312;43.460;11.810;2023-01-25T13:49:27;1.85;;;1.10;;
42134;SDS011;28312;43.460;11.810;2023-01-25T13:53:38;1.48;;;1.00;;
42134;SDS011;28312;43.460;11.810;2023-01-25T13:57:42;3.95;;;0.82;;
42134;SDS011;28312;43.460;11.810;2023-01-25T14:01:45;1.63;;;0.88;;
42134;SDS011;28312;43.460;11.810;2023-01-25T14:05:50;1.48;;;0.88;;
42134;SDS011;28312;43.460;11.810;2023-01-25T14:09:56;1.67;;;1.00;;
42134;SDS011;28312;43.460;11.810;2023-01-25T14:14:15;3.15;;;1.48;;
42134;SDS011;28312;43.460;11.810;2023-01-25T14:18:26;2.97;;;1.60;;
42134;SDS011;28312;43.460;11.810;2023-01-25T14:22:32;3.13;;;1.40;;
42134;SDS011;28312;43.460;11.810;2023-01-25T14:26:37;2.83;;;1.35;;
42134;SDS011;28312;43.460;11.810;2023-01-25T14:30:43;1.90;;;1.23;;
42134;SDS011;28312;43.460;11.810;2023-01-25T14:34:54;2.00;;;1.30;;
42134;SDS011;28312;43.460;11.810;2023-01-25T14:38:58;3.53;;;1.77;;
42134;SDS011;28312;43.460;11.810;2023-01-25T14:43:04;4.72;;;3.28;;
42134;SDS011;28312;43.460;11.810;2023-01-25T14:51:28;4.13;;;2.28;;
42134;SDS011;28312;43.460;11.810;2023-01-25T14:55:32;3.38;;;2.33;;
42134;SDS011;28312;43.460;11.810;2023-01-25T14:59:38;2.60;;;1.55;;
42134;SDS011;28312;43.460;11.810;2023-01-25T15:07:48;1.50;;;0.95;;
42134;SDS011;28312;43.460;11.810;2023-01-25T15:11:57;2.45;;;1.13;;
42134;SDS011;28312;43.460;11.810;2023-01-25T15:16:02;5.53;;;1.40;;
42134;SDS011;28312;43.460;11.810;2023-01-25T15:20:26;2.53;;;1.17;;
42134;SDS011;28312;43.460;11.810;2023-01-25T15:24:30;2.42;;;1.75;;
42134;SDS011;28312;43.460;11.810;2023-01-25T15:28:34;4.65;;;2.13;;
42134;SDS011;28312;43.460;11.810;2023-01-25T15:32:39;2.47;;;1.40;;
42134;SDS011;28312;43.460;11.810;2023-01-25T15:36:43;2.40;;;1.50;;
42134;SDS011;28312;43.460;11.810;2023-01-25T15:40:47;2.88;;;1.42;;
42134;SDS011;28312;43.460;11.810;2023-01-25T15:44:51;2.17;;;1.25;;
42134;SDS011;28312;43.460;11.810;2023-01-25T15:48:55;1.35;;;0.98;;
42134;SDS011;28312;43.460;11.810;2023-01-25T15:52:58;2.10;;;1.20;;
42134;SDS011;28312;43.460;11.810;2023-01-25T15:57:02;2.13;;;1.08;;
42134;SDS011;28312;43.460;11.810;2023-01-25T16:01:05;3.20;;;1.90;;
42134;SDS011;28312;43.460;11.810;2023-01-25T16:05:09;2.80;;;1.63;;
42134;SDS011;28312;43.460;11.810;2023-01-25T16:13:31;2.60;;;1.50;;
42134;SDS011;28312;43.460;11.810;2023-01-25T16:17:34;2.08;;;1.20;;
42134;SDS011;28312;43.460;11.810;2023-01-25T16:21:38;2.15;;;1.50;;
42134;SDS011;28312;43.460;11.810;2023-01-25T16:25:42;2.42;;;1.00;;
42134;SDS011;28312;43.460;11.810;2023-01-25T16:29:49;2.20;;;1.42;;
42134;SDS011;28312;43.460;11.810;2023-01-25T16:33:55;2.70;;;1.42;;
42134;SDS011;28312;43.460;11.810;2023-01-25T16:37:59;3.03;;;1.75;;
42134;SDS011;28312;43.460;11.810;2023-01-25T16:42:03;3.47;;;1.98;;
42134;SDS011;28312;43.460;11.810;2023-01-25T16:46:17;2.45;;;1.50;;
42134;SDS011;28312;43.460;11.810;2023-01-25T16:50:22;2.40;;;1.63;;
42134;SDS011;28312;43.460;11.810;2023-01-25T16:54:25;2.20;;;1.40;;
42134;SDS011;28312;43.460;11.810;2023-01-25T16:58:29;2.40;;;1.48;;
42134;SDS011;28312;43.460;11.810;2023-01-25T17:02:33;3.05;;;1.83;;
42134;SDS011;28312;43.460;11.810;2023-01-25T17:06:41;1.60;;;1.10;;
42134;SDS011;28312;43.460;11.810;2023-01-25T17:10:45;2.85;;;1.98;;
42134;SDS011;28312;43.460;11.810;2023-01-25T17:14:49;3.00;;;2.30;;
42134;SDS011;28312;43.460;11.810;2023-01-25T17:18:53;3.38;;;1.98;;
42134;SDS011;28312;43.460;11.810;2023-01-25T17:23:01;4.70;;;4.07;;
42134;SDS011;28312;43.460;11.810;2023-01-25T17:27:04;3.40;;;2.70;;
42134;SDS011;28312;43.460;11.810;2023-01-25T17:31:15;5.03;;;3.28;;
42134;SDS011;28312;43.460;11.810;2023-01-25T17:35:23;7.22;;;4.18;;
42134;SDS011;28312;43.460;11.810;2023-01-25T17:39:27;4.68;;;2.88;;
42134;SDS011;28312;43.460;11.810;2023-01-25T17:43:30;3.67;;;2.70;;
42134;SDS011;28312;43.460;11.810;2023-01-25T17:47:35;2.97;;;2.05;;
42134;SDS011;28312;43.460;11.810;2023-01-25T17:51:39;4.22;;;2.90;;
42134;SDS011;28312;43.460;11.810;2023-01-25T17:55:42;4.32;;;2.63;;
42134;SDS011;28312;43.460;11.810;2023-01-25T17:59:46;5.82;;;3.70;;
42134;SDS011;28312;43.460;11.810;2023-01-25T18:03:50;4.03;;;2.65;;
42134;SDS011;28312;43.460;11.810;2023-01-25T18:07:54;6.72;;;2.97;;
42134;SDS011;28312;43.460;11.810;2023-01-25T18:11:58;4.30;;;2.78;;
42134;SDS011;28312;43.460;11.810;2023-01-25T18:16:01;4.85;;;2.85;;
42134;SDS011;28312;43.460;11.810;2023-01-25T18:20:07;4.47;;;2.95;;
42134;SDS011;28312;43.460;11.810;2023-01-25T18:24:25;2.90;;;2.03;;
42134;SDS011;28312;43.460;11.810;2023-01-25T18:28:35;4.25;;;2.47;;
42134;SDS011;28312;43.460;11.810;2023-01-25T18:32:40;3.17;;;1.67;;
42134;SDS011;28312;43.460;11.810;2023-01-25T18:36:43;2.75;;;1.73;;
42134;SDS011;28312;43.460;11.810;2023-01-25T18:40:46;3.85;;;2.05;;
42134;SDS011;28312;43.460;11.810;2023-01-25T18:44:51;3.53;;;1.55;;
42134;SDS011;28312;43.460;11.810;2023-01-25T18:48:54;4.50;;;2.60;;
42134;SDS011;28312;43.460;11.810;2023-01-25T18:52:58;3.80;;;2.53;;
42134;SDS011;28312;43.460;11.810;2023-01-25T18:57:03;4.22;;;2.35;;
42134;SDS011;28312;43.460;11.810;2023-01-25T19:01:10;4.68;;;2.50;;
42134;SDS011;28312;43.460;11.810;2023-01-25T19:05:16;4.68;;;2.70;;
42134;SDS011;28312;43.460;11.810;2023-01-25T19:09:23;4.68;;;2.70;;
42134;SDS011;28312;43.460;11.810;2023-01-25T19:13:28;2.78;;;1.88;;
42134;SDS011;28312;43.460;11.810;2023-01-25T19:17:34;3.97;;;3.08;;
42134;SDS011;28312;43.460;11.810;2023-01-25T19:21:38;2.78;;;1.90;;
42134;SDS011;28312;43.460;11.810;2023-01-25T19:25:42;3.78;;;1.90;;
42134;SDS011;28312;43.460;11.810;2023-01-25T19:29:45;4.78;;;2.10;;
42134;SDS011;28312;43.460;11.810;2023-01-25T19:33:56;5.50;;;3.85;;
42134;SDS011;28312;43.460;11.810;2023-01-25T19:38:02;4.97;;;4.05;;
42134;SDS011;28312;43.460;11.810;2023-01-25T19:42:05;5.32;;;2.55;;
42134;SDS011;28312;43.460;11.810;2023-01-25T19:46:12;5.90;;;2.70;;
42134;SDS011;28312;43.460;11.810;2023-01-25T19:50:16;5.13;;;3.35;;
42134;SDS011;28312;43.460;11.810;2023-01-25T19:54:19;6.38;;;3.17;;
42134;SDS011;28312;43.460;11.810;2023-01-25T19:58:25;6.97;;;3.45;;
42134;SDS011;28312;43.460;11.810;2023-01-25T20:02:30;5.03;;;3.60;;
42134;SDS011;28312;43.460;11.810;2023-01-25T20:06:33;7.88;;;4.47;;
42134;SDS011;28312;43.460;11.810;2023-01-25T20:10:38;3.40;;;2.33;;
42134;SDS011;28312;43.460;11.810;2023-01-25T20:14:41;6.18;;;4.00;;
42134;SDS011;28312;43.460;11.810;2023-01-25T20:18:46;4.78;;;2.83;;
42134;SDS011;28312;43.460;11.810;2023-01-25T20:22:51;3.88;;;2.08;;
42134;SDS011;28312;43.460;11.810;2023-01-25T20:26:55;4.18;;;2.45;;
42134;SDS011;28312;43.460;11.810;2023-01-25T20:31:00;4.10;;;2.80;;
42134;SDS011;28312;43.460;11.810;2023-01-25T20:35:05;4.07;;;3.05;;
42134;SDS011;28312;43.460;11.810;2023-01-25T20:39:11;3.47;;;2.15;;
42134;SDS011;28312;43.460;11.810;2023-01-25T20:43:16;3.80;;;1.90;;
42134;SDS011;28312;43.460;11.810;2023-01-25T20:47:21;5.65;;;2.42;;
42134;SDS011;28312;43.460;11.810;2023-01-25T20:51:24;4.63;;;2.67;;
42134;SDS011;28312;43.460;11.810;2023-01-25T20:55:28;4.28;;;3.88;;
42134;SDS011;28312;43.460;11.810;2023-01-25T20:59:31;10.25;;;9.23;;
42134;SDS011;28312;43.460;11.810;2023-01-25T21:03:35;3.45;;;2.05;;
42134;SDS011;28312;43.460;11.810;2023-01-25T21:07:39;6.70;;;2.85;;
42134;SDS011;28312;43.460;11.810;2023-01-25T21:11:42;5.43;;;3.20;;
42134;SDS011;28312;43.460;11.810;2023-01-25T21:15:59;6.30;;;3.95;;
42134;SDS011;28312;43.460;11.810;2023-01-25T21:20:04;6.03;;;3.92;;
42134;SDS011;28312;43.460;11.810;2023-01-25T21:24:11;6.00;;;3.13;;
42134;SDS011;28312;43.460;11.810;2023-01-25T21:28:16;6.60;;;2.60;;
42134;SDS011;28312;43.460;11.810;2023-01-25T21:32:20;4.32;;;2.78;;
42134;SDS011;28312;43.460;11.810;2023-01-25T21:36:26;3.85;;;1.95;;
42134;SDS011;28312;43.460;11.810;2023-01-25T21:40:31;3.28;;;1.85;;
42134;SDS011;28312;43.460;11.810;2023-01-25T21:44:36;5.75;;;2.90;;
42134;SDS011;28312;43.460;11.810;2023-01-25T21:49:00;6.43;;;3.85;;
42134;SDS011;28312;43.460;11.810;2023-01-25T21:53:24;4.30;;;1.52;;
42134;SDS011;28312;43.460;11.810;2023-01-25T21:57:28;4.28;;;3.03;;
42134;SDS011;28312;43.460;11.810;2023-01-25T22:01:32;3.80;;;2.38;;
42134;SDS011;28312;43.460;11.810;2023-01-25T22:05:37;4.47;;;2.95;;
42134;SDS011;28312;43.460;11.810;2023-01-25T22:09:41;9.52;;;5.38;;
42134;SDS011;28312;43.460;11.810;2023-01-25T22:13:46;3.95;;;2.80;;
42134;SDS011;28312;43.460;11.810;2023-01-25T22:17:50;7.28;;;5.75;;
42134;SDS011;28312;43.460;11.810;2023-01-25T22:21:55;4.72;;;2.95;;
42134;SDS011;28312;43.460;11.810;2023-01-25T22:26:04;3.95;;;2.90;;
42134;SDS011;28312;43.460;11.810;2023-01-25T22:30:09;4.25;;;2.30;;
42134;SDS011;28312;43.460;11.810;2023-01-25T22:34:15;5.00;;;2.80;;
42134;SDS011;28312;43.460;11.810;2023-01-25T22:38:19;6.07;;;5.45;;
42134;SDS011;28312;43.460;11.810;2023-01-25T22:42:23;5.32;;;4.72;;
42134;SDS011;28312;43.460;11.810;2023-01-25T22:46:27;5.80;;;3.33;;
42134;SDS011;28312;43.460;11.810;2023-01-25T22:50:31;6.82;;;3.38;;
42134;SDS011;28312;43.460;11.810;2023-01-25T22:54:35;5.43;;;3.15;;
42134;SDS011;28312;43.460;11.810;2023-01-25T22:58:41;4.40;;;2.70;;
42134;SDS011;28312;43.460;11.810;2023-01-25T23:02:45;12.32;;;8.48;;
42134;SDS011;28312;43.460;11.810;2023-01-25T23:06:48;4.03;;;2.03;;
42134;SDS011;28312;43.460;11.810;2023-01-25T23:11:07;3.90;;;2.42;;
42134;SDS011;28312;43.460;11.810;2023-01-25T23:15:18;5.13;;;2.78;;
42134;SDS011;28312;43.460;11.810;2023-01-25T23:19:21;3.17;;;1.90;;
42134;SDS011;28312;43.460;11.810;2023-01-25T23:27:31;3.60;;;2.42;;
42134;SDS011;28312;43.460;11.810;2023-01-25T23:31:35;3.03;;;1.80;;
42134;SDS011;28312;43.460;11.810;2023-01-25T23:35:38;4.13;;;1.85;;
42134;SDS011;28312;43.460;11.810;2023-01-25T23:39:42;4.00;;;2.53;;
42134;SDS011;28312;43.460;11.810;2023-01-25T23:43:45;2.97;;;2.17;;
42134;SDS011;28312;43.460;11.810;2023-01-25T23:47:49;4.57;;;2.90;;
42134;SDS011;28312;43.460;11.810;2023-01-25T23:51:53;4.50;;;2.58;;
42134;SDS011;28312;43.460;11.810;2023-01-25T23:55:58;2.38;;;1.35;;
